sensor_id;sensor_type;location;lat;lon;timestamp;temperature;humidity
16249;DHT22;8232;51.678;6.610;2022-10-13T00:01:25;10.30;1.00
16249;DHT22;8232;51.678;6.610;2022-10-13T00:03:53;10.30;1.00
16249;DHT22;8232;51.678;6.610;2022-10-13T00:06:21;10.20;1.00
16249;DHT22;8232;51.678;6.610;2022-10-13T00:08:48;10.30;1.00
16249;DHT22;8232;51.678;6.610;2022-10-13T00:11:18;10.30;1.00
16249;DHT22;8232;51.678;6.610;2022-10-13T00:13:45;10.30;1.00
16249;DHT22;8232;51.678;6.610;2022-10-13T00:16:15;10.30;1.00
16249;DHT22;8232;51.678;6.610;2022-10-13T00:18:43;10.40;1.00
16249;DHT22;8232;51.678;6.610;2022-10-13T00:21:13;10.40;1.00
16249;DHT22;8232;51.678;6.610;2022-10-13T00:23:40;10.50;1.00
16249;DHT22;8232;51.678;6.610;2022-10-13T00:26:08;10.50;1.00
16249;DHT22;8232;51.678;6.610;2022-10-13T00:28:37;10.50;1.00
16249;DHT22;8232;51.678;6.610;2022-10-13T00:31:13;10.50;1.00
16249;DHT22;8232;51.678;6.610;2022-10-13T00:33:40;10.50;1.00
16249;DHT22;8232;51.678;6.610;2022-10-13T00:36:07;10.50;1.00
16249;DHT22;8232;51.678;6.610;2022-10-13T00:38:34;10.50;1.00
16249;DHT22;8232;51.678;6.610;2022-10-13T00:41:01;10.50;1.00
16249;DHT22;8232;51.678;6.610;2022-10-13T00:43:50;10.60;1.00
16249;DHT22;8232;51.678;6.610;2022-10-13T00:46:17;10.60;1.00
16249;DHT22;8232;51.678;6.610;2022-10-13T00:48:45;10.60;1.00
16249;DHT22;8232;51.678;6.610;2022-10-13T00:51:14;10.60;1.00
16249;DHT22;8232;51.678;6.610;2022-10-13T00:53:43;10.50;1.00
16249;DHT22;8232;51.678;6.610;2022-10-13T00:56:12;10.50;1.00
16249;DHT22;8232;51.678;6.610;2022-10-13T00:58:40;10.50;1.00
16249;DHT22;8232;51.678;6.610;2022-10-13T01:01:09;10.50;1.00
16249;DHT22;8232;51.678;6.610;2022-10-13T01:03:36;10.50;1.00
16249;DHT22;8232;51.678;6.610;2022-10-13T01:06:05;10.50;1.00
16249;DHT22;8232;51.678;6.610;2022-10-13T01:08:32;10.50;1.00
16249;DHT22;8232;51.678;6.610;2022-10-13T01:11:13;10.50;1.00
16249;DHT22;8232;51.678;6.610;2022-10-13T01:13:49;10.50;1.00
16249;DHT22;8232;51.678;6.610;2022-10-13T01:16:27;10.50;1.00
16249;DHT22;8232;51.678;6.610;2022-10-13T01:19:03;10.50;1.00
16249;DHT22;8232;51.678;6.610;2022-10-13T01:21:33;10.50;1.00
16249;DHT22;8232;51.678;6.610;2022-10-13T01:24:26;10.50;1.00
16249;DHT22;8232;51.678;6.610;2022-10-13T01:27:32;10.50;1.00
16249;DHT22;8232;51.678;6.610;2022-10-13T01:30:15;10.50;1.00
16249;DHT22;8232;51.678;6.610;2022-10-13T01:33:17;10.60;1.00
16249;DHT22;8232;51.678;6.610;2022-10-13T01:35:56;10.50;1.00
16249;DHT22;8232;51.678;6.610;2022-10-13T01:38:34;10.60;1.00
16249;DHT22;8232;51.678;6.610;2022-10-13T01:41:07;10.60;1.00
16249;DHT22;8232;51.678;6.610;2022-10-13T01:43:38;10.60;1.00
16249;DHT22;8232;51.678;6.610;2022-10-13T01:46:11;10.60;1.00
16249;DHT22;8232;51.678;6.610;2022-10-13T01:48:40;10.70;1.00
16249;DHT22;8232;51.678;6.610;2022-10-13T01:51:11;10.70;1.00
16249;DHT22;8232;51.678;6.610;2022-10-13T01:53:39;10.70;1.00
16249;DHT22;8232;51.678;6.610;2022-10-13T01:56:06;10.80;1.00
16249;DHT22;8232;51.678;6.610;2022-10-13T01:58:34;10.80;1.00
16249;DHT22;8232;51.678;6.610;2022-10-13T02:01:12;10.80;1.00
16249;DHT22;8232;51.678;6.610;2022-10-13T02:03:48;10.70;1.00
16249;DHT22;8232;51.678;6.610;2022-10-13T02:06:21;10.80;1.00
16249;DHT22;8232;51.678;6.610;2022-10-13T02:08:55;10.70;1.00
16249;DHT22;8232;51.678;6.610;2022-10-13T02:11:26;10.70;1.00
16249;DHT22;8232;51.678;6.610;2022-10-13T02:14:04;10.80;1.00
16249;DHT22;8232;51.678;6.610;2022-10-13T02:16:36;10.80;1.00
16249;DHT22;8232;51.678;6.610;2022-10-13T02:19:05;10.80;1.00
16249;DHT22;8232;51.678;6.610;2022-10-13T02:21:34;10.90;1.00
16249;DHT22;8232;51.678;6.610;2022-10-13T02:24:02;10.80;1.00
16249;DHT22;8232;51.678;6.610;2022-10-13T02:26:30;10.90;1.00
16249;DHT22;8232;51.678;6.610;2022-10-13T02:28:57;10.90;1.00
16249;DHT22;8232;51.678;6.610;2022-10-13T02:31:24;10.90;1.00
16249;DHT22;8232;51.678;6.610;2022-10-13T02:33:52;10.90;1.00
16249;DHT22;8232;51.678;6.610;2022-10-13T02:36:19;11.00;1.00
16249;DHT22;8232;51.678;6.610;2022-10-13T02:38:46;11.00;1.00
16249;DHT22;8232;51.678;6.610;2022-10-13T02:41:12;11.00;1.00
16249;DHT22;8232;51.678;6.610;2022-10-13T02:43:39;11.00;1.00
16249;DHT22;8232;51.678;6.610;2022-10-13T02:46:06;11.00;1.00
16249;DHT22;8232;51.678;6.610;2022-10-13T02:48:33;11.10;1.00
16249;DHT22;8232;51.678;6.610;2022-10-13T02:51:01;11.00;1.00
16249;DHT22;8232;51.678;6.610;2022-10-13T02:53:28;11.00;1.00
16249;DHT22;8232;51.678;6.610;2022-10-13T02:55:55;11.10;1.00
16249;DHT22;8232;51.678;6.610;2022-10-13T02:58:21;11.10;1.00
16249;DHT22;8232;51.678;6.610;2022-10-13T03:00:48;11.10;1.00
16249;DHT22;8232;51.678;6.610;2022-10-13T03:03:15;11.00;1.00
16249;DHT22;8232;51.678;6.610;2022-10-13T03:05:43;11.10;1.00
16249;DHT22;8232;51.678;6.610;2022-10-13T03:08:11;11.20;1.00
16249;DHT22;8232;51.678;6.610;2022-10-13T03:10:37;11.20;1.00
16249;DHT22;8232;51.678;6.610;2022-10-13T03:13:04;11.20;1.00
16249;DHT22;8232;51.678;6.610;2022-10-13T03:15:31;11.20;1.00
16249;DHT22;8232;51.678;6.610;2022-10-13T03:17:58;11.20;1.00
16249;DHT22;8232;51.678;6.610;2022-10-13T03:20:24;11.20;1.00
16249;DHT22;8232;51.678;6.610;2022-10-13T03:22:51;11.20;1.00
16249;DHT22;8232;51.678;6.610;2022-10-13T03:25:19;11.20;1.00
16249;DHT22;8232;51.678;6.610;2022-10-13T03:27:46;11.20;1.00
16249;DHT22;8232;51.678;6.610;2022-10-13T03:30:13;11.20;1.00
16249;DHT22;8232;51.678;6.610;2022-10-13T03:32:40;11.30;1.00
16249;DHT22;8232;51.678;6.610;2022-10-13T03:35:07;11.20;1.00
16249;DHT22;8232;51.678;6.610;2022-10-13T03:37:34;11.20;1.00
16249;DHT22;8232;51.678;6.610;2022-10-13T03:40:01;11.30;1.00
16249;DHT22;8232;51.678;6.610;2022-10-13T03:42:29;11.30;1.00
16249;DHT22;8232;51.678;6.610;2022-10-13T03:44:56;11.30;1.00
16249;DHT22;8232;51.678;6.610;2022-10-13T03:47:22;11.30;1.00
16249;DHT22;8232;51.678;6.610;2022-10-13T03:49:49;11.40;1.00
16249;DHT22;8232;51.678;6.610;2022-10-13T03:52:19;11.40;1.00
16249;DHT22;8232;51.678;6.610;2022-10-13T03:54:46;11.40;1.00
16249;DHT22;8232;51.678;6.610;2022-10-13T03:57:13;11.40;1.00
16249;DHT22;8232;51.678;6.610;2022-10-13T03:59:41;11.40;1.00
16249;DHT22;8232;51.678;6.610;2022-10-13T04:02:08;11.40;1.00
16249;DHT22;8232;51.678;6.610;2022-10-13T04:04:36;11.40;1.00
16249;DHT22;8232;51.678;6.610;2022-10-13T04:07:04;11.30;1.00
16249;DHT22;8232;51.678;6.610;2022-10-13T04:09:32;11.30;1.00
16249;DHT22;8232;51.678;6.610;2022-10-13T04:11:59;11.30;1.00
16249;DHT22;8232;51.678;6.610;2022-10-13T04:14:26;11.30;1.00
16249;DHT22;8232;51.678;6.610;2022-10-13T04:16:54;11.30;1.00
16249;DHT22;8232;51.678;6.610;2022-10-13T04:19:20;11.30;1.00
16249;DHT22;8232;51.678;6.610;2022-10-13T04:21:47;11.20;1.00
16249;DHT22;8232;51.678;6.610;2022-10-13T04:24:15;11.20;1.00
16249;DHT22;8232;51.678;6.610;2022-10-13T04:26:44;11.20;1.00
16249;DHT22;8232;51.678;6.610;2022-10-13T04:29:11;11.30;1.00
16249;DHT22;8232;51.678;6.610;2022-10-13T04:31:39;11.30;1.00
16249;DHT22;8232;51.678;6.610;2022-10-13T04:34:08;11.20;1.00
16249;DHT22;8232;51.678;6.610;2022-10-13T04:36:35;11.20;1.00
16249;DHT22;8232;51.678;6.610;2022-10-13T04:39:02;11.30;1.00
16249;DHT22;8232;51.678;6.610;2022-10-13T04:41:29;11.30;1.00
16249;DHT22;8232;51.678;6.610;2022-10-13T04:43:56;11.30;1.00
16249;DHT22;8232;51.678;6.610;2022-10-13T04:46:25;11.30;1.00
16249;DHT22;8232;51.678;6.610;2022-10-13T04:48:52;11.30;1.00
16249;DHT22;8232;51.678;6.610;2022-10-13T04:51:22;11.40;1.00
16249;DHT22;8232;51.678;6.610;2022-10-13T04:53:53;11.40;1.00
16249;DHT22;8232;51.678;6.610;2022-10-13T04:56:20;11.30;1.00
16249;DHT22;8232;51.678;6.610;2022-10-13T04:58:46;11.30;1.00
16249;DHT22;8232;51.678;6.610;2022-10-13T05:01:17;11.40;1.00
16249;DHT22;8232;51.678;6.610;2022-10-13T05:03:44;11.40;1.00
16249;DHT22;8232;51.678;6.610;2022-10-13T05:06:15;11.40;1.00
16249;DHT22;8232;51.678;6.610;2022-10-13T05:08:43;11.40;1.00
16249;DHT22;8232;51.678;6.610;2022-10-13T05:11:10;11.50;1.00
16249;DHT22;8232;51.678;6.610;2022-10-13T05:13:37;11.40;1.00
16249;DHT22;8232;51.678;6.610;2022-10-13T05:16:07;11.40;1.00
16249;DHT22;8232;51.678;6.610;2022-10-13T05:18:35;11.40;1.00
16249;DHT22;8232;51.678;6.610;2022-10-13T05:21:09;11.50;1.00
16249;DHT22;8232;51.678;6.610;2022-10-13T05:23:36;11.40;1.00
16249;DHT22;8232;51.678;6.610;2022-10-13T05:26:06;11.40;1.00
16249;DHT22;8232;51.678;6.610;2022-10-13T05:28:33;11.40;1.00
16249;DHT22;8232;51.678;6.610;2022-10-13T05:31:08;11.40;1.00
16249;DHT22;8232;51.678;6.610;2022-10-13T05:33:36;11.50;1.00
16249;DHT22;8232;51.678;6.610;2022-10-13T05:36:07;11.40;1.00
16249;DHT22;8232;51.678;6.610;2022-10-13T05:38:34;11.40;1.00
16249;DHT22;8232;51.678;6.610;2022-10-13T05:41:04;11.50;1.00
16249;DHT22;8232;51.678;6.610;2022-10-13T05:43:32;11.50;1.00
16249;DHT22;8232;51.678;6.610;2022-10-13T05:45:59;11.40;1.00
16249;DHT22;8232;51.678;6.610;2022-10-13T05:48:26;11.40;1.00
16249;DHT22;8232;51.678;6.610;2022-10-13T05:50:54;11.30;1.00
16249;DHT22;8232;51.678;6.610;2022-10-13T05:53:23;11.20;1.00
16249;DHT22;8232;51.678;6.610;2022-10-13T05:55:52;11.20;1.00
16249;DHT22;8232;51.678;6.610;2022-10-13T05:58:21;11.20;1.00
16249;DHT22;8232;51.678;6.610;2022-10-13T06:00:48;11.20;1.00
16249;DHT22;8232;51.678;6.610;2022-10-13T06:03:18;11.30;1.00
16249;DHT22;8232;51.678;6.610;2022-10-13T06:05:47;11.30;1.00
16249;DHT22;8232;51.678;6.610;2022-10-13T06:08:14;11.30;1.00
16249;DHT22;8232;51.678;6.610;2022-10-13T06:10:41;11.30;1.00
16249;DHT22;8232;51.678;6.610;2022-10-13T06:13:08;11.30;1.00
16249;DHT22;8232;51.678;6.610;2022-10-13T06:15:36;11.20;1.00
16249;DHT22;8232;51.678;6.610;2022-10-13T06:18:06;11.10;1.00
16249;DHT22;8232;51.678;6.610;2022-10-13T06:20:33;11.10;1.00
16249;DHT22;8232;51.678;6.610;2022-10-13T06:23:00;11.00;1.00
16249;DHT22;8232;51.678;6.610;2022-10-13T06:25:27;11.10;1.00
16249;DHT22;8232;51.678;6.610;2022-10-13T06:27:55;11.10;1.00
16249;DHT22;8232;51.678;6.610;2022-10-13T06:30:22;11.10;1.00
16249;DHT22;8232;51.678;6.610;2022-10-13T06:32:50;11.10;1.00
16249;DHT22;8232;51.678;6.610;2022-10-13T06:35:18;11.10;1.00
16249;DHT22;8232;51.678;6.610;2022-10-13T06:37:45;11.20;1.00
16249;DHT22;8232;51.678;6.610;2022-10-13T06:40:13;11.20;1.00
16249;DHT22;8232;51.678;6.610;2022-10-13T06:42:40;11.30;1.00
16249;DHT22;8232;51.678;6.610;2022-10-13T06:45:07;11.40;1.00
16249;DHT22;8232;51.678;6.610;2022-10-13T06:47:34;11.40;1.00
16249;DHT22;8232;51.678;6.610;2022-10-13T06:50:03;11.50;1.00
16249;DHT22;8232;51.678;6.610;2022-10-13T06:52:29;11.50;1.00
16249;DHT22;8232;51.678;6.610;2022-10-13T06:54:56;11.60;1.00
16249;DHT22;8232;51.678;6.610;2022-10-13T06:57:23;11.70;1.00
16249;DHT22;8232;51.678;6.610;2022-10-13T06:59:50;11.70;1.00
16249;DHT22;8232;51.678;6.610;2022-10-13T07:02:17;11.80;1.00
16249;DHT22;8232;51.678;6.610;2022-10-13T07:04:45;11.80;1.00
16249;DHT22;8232;51.678;6.610;2022-10-13T07:07:14;11.70;1.00
16249;DHT22;8232;51.678;6.610;2022-10-13T07:09:41;11.70;1.00
16249;DHT22;8232;51.678;6.610;2022-10-13T07:12:08;11.70;1.00
16249;DHT22;8232;51.678;6.610;2022-10-13T07:14:35;11.70;1.00
16249;DHT22;8232;51.678;6.610;2022-10-13T07:17:01;11.80;1.00
16249;DHT22;8232;51.678;6.610;2022-10-13T07:19:28;11.90;1.00
16249;DHT22;8232;51.678;6.610;2022-10-13T07:21:55;11.90;1.00
16249;DHT22;8232;51.678;6.610;2022-10-13T07:24:23;12.00;1.00
16249;DHT22;8232;51.678;6.610;2022-10-13T07:26:50;12.00;1.00
16249;DHT22;8232;51.678;6.610;2022-10-13T07:29:17;12.10;1.00
16249;DHT22;8232;51.678;6.610;2022-10-13T07:31:45;12.20;1.00
16249;DHT22;8232;51.678;6.610;2022-10-13T07:34:13;12.20;1.00
16249;DHT22;8232;51.678;6.610;2022-10-13T07:36:40;12.20;1.00
16249;DHT22;8232;51.678;6.610;2022-10-13T07:39:07;12.30;1.00
16249;DHT22;8232;51.678;6.610;2022-10-13T07:41:35;12.30;1.00
16249;DHT22;8232;51.678;6.610;2022-10-13T07:44:02;12.30;1.00
16249;DHT22;8232;51.678;6.610;2022-10-13T07:46:29;12.30;1.00
16249;DHT22;8232;51.678;6.610;2022-10-13T07:48:56;12.30;1.00
16249;DHT22;8232;51.678;6.610;2022-10-13T07:51:23;12.30;1.00
16249;DHT22;8232;51.678;6.610;2022-10-13T07:53:50;12.40;1.00
16249;DHT22;8232;51.678;6.610;2022-10-13T07:56:16;12.30;1.00
16249;DHT22;8232;51.678;6.610;2022-10-13T07:58:46;12.40;1.00
16249;DHT22;8232;51.678;6.610;2022-10-13T08:01:14;12.50;1.00
16249;DHT22;8232;51.678;6.610;2022-10-13T08:03:41;12.60;1.00
16249;DHT22;8232;51.678;6.610;2022-10-13T08:06:09;12.60;1.00
16249;DHT22;8232;51.678;6.610;2022-10-13T08:08:36;12.60;1.00
16249;DHT22;8232;51.678;6.610;2022-10-13T08:11:06;12.70;1.00
16249;DHT22;8232;51.678;6.610;2022-10-13T08:13:34;12.80;1.00
16249;DHT22;8232;51.678;6.610;2022-10-13T08:16:03;12.80;1.00
16249;DHT22;8232;51.678;6.610;2022-10-13T08:18:30;12.70;1.00
16249;DHT22;8232;51.678;6.610;2022-10-13T08:21:00;12.80;1.00
16249;DHT22;8232;51.678;6.610;2022-10-13T08:23:27;12.70;1.00
16249;DHT22;8232;51.678;6.610;2022-10-13T08:25:55;12.90;1.00
16249;DHT22;8232;51.678;6.610;2022-10-13T08:28:23;12.90;1.00
16249;DHT22;8232;51.678;6.610;2022-10-13T08:30:51;12.90;1.00
16249;DHT22;8232;51.678;6.610;2022-10-13T08:33:21;12.90;1.00
16249;DHT22;8232;51.678;6.610;2022-10-13T08:35:48;12.90;1.00
16249;DHT22;8232;51.678;6.610;2022-10-13T08:38:14;12.90;1.00
16249;DHT22;8232;51.678;6.610;2022-10-13T08:40:45;13.00;1.00
16249;DHT22;8232;51.678;6.610;2022-10-13T08:43:14;12.90;1.00
16249;DHT22;8232;51.678;6.610;2022-10-13T08:45:43;12.90;1.00
16249;DHT22;8232;51.678;6.610;2022-10-13T08:48:13;13.00;1.00
16249;DHT22;8232;51.678;6.610;2022-10-13T08:50:45;13.00;1.00
16249;DHT22;8232;51.678;6.610;2022-10-13T08:53:19;13.00;1.00
16249;DHT22;8232;51.678;6.610;2022-10-13T08:55:50;13.00;1.00
16249;DHT22;8232;51.678;6.610;2022-10-13T08:58:19;13.00;1.00
16249;DHT22;8232;51.678;6.610;2022-10-13T09:00:47;12.90;1.00
16249;DHT22;8232;51.678;6.610;2022-10-13T09:03:22;12.90;1.00
16249;DHT22;8232;51.678;6.610;2022-10-13T09:05:59;12.90;1.00
16249;DHT22;8232;51.678;6.610;2022-10-13T09:08:36;12.90;1.00
16249;DHT22;8232;51.678;6.610;2022-10-13T09:11:03;12.90;1.00
16249;DHT22;8232;51.678;6.610;2022-10-13T09:13:30;13.00;1.00
16249;DHT22;8232;51.678;6.610;2022-10-13T09:15:57;13.10;1.00
16249;DHT22;8232;51.678;6.610;2022-10-13T09:18:27;13.20;1.00
16249;DHT22;8232;51.678;6.610;2022-10-13T09:21:14;13.20;1.00
16249;DHT22;8232;51.678;6.610;2022-10-13T09:23:42;13.40;1.00
16249;DHT22;8232;51.678;6.610;2022-10-13T09:26:16;13.60;1.00
16249;DHT22;8232;51.678;6.610;2022-10-13T09:28:44;13.90;1.00
16249;DHT22;8232;51.678;6.610;2022-10-13T09:31:15;14.10;1.00
16249;DHT22;8232;51.678;6.610;2022-10-13T09:33:42;14.30;1.00
16249;DHT22;8232;51.678;6.610;2022-10-13T09:36:13;14.60;1.00
16249;DHT22;8232;51.678;6.610;2022-10-13T09:38:43;14.60;1.00
16249;DHT22;8232;51.678;6.610;2022-10-13T09:41:16;15.40;1.00
16249;DHT22;8232;51.678;6.610;2022-10-13T09:43:58;15.50;1.00
16249;DHT22;8232;51.678;6.610;2022-10-13T09:46:27;15.80;1.00
16249;DHT22;8232;51.678;6.610;2022-10-13T09:48:58;15.90;1.00
16249;DHT22;8232;51.678;6.610;2022-10-13T09:51:34;15.90;1.00
16249;DHT22;8232;51.678;6.610;2022-10-13T09:54:03;16.00;1.00
16249;DHT22;8232;51.678;6.610;2022-10-13T09:56:37;15.70;1.00
16249;DHT22;8232;51.678;6.610;2022-10-13T09:59:12;15.30;1.00
16249;DHT22;8232;51.678;6.610;2022-10-13T10:01:42;15.30;1.00
16249;DHT22;8232;51.678;6.610;2022-10-13T10:04:13;15.20;1.00
16249;DHT22;8232;51.678;6.610;2022-10-13T10:06:43;15.30;1.00
16249;DHT22;8232;51.678;6.610;2022-10-13T10:12:03;15.60;1.00
16249;DHT22;8232;51.678;6.610;2022-10-13T10:14:31;15.80;1.00
16249;DHT22;8232;51.678;6.610;2022-10-13T10:17:03;16.10;1.00
16249;DHT22;8232;51.678;6.610;2022-10-13T10:19:44;16.20;1.00
16249;DHT22;8232;51.678;6.610;2022-10-13T10:22:21;17.10;1.00
16249;DHT22;8232;51.678;6.610;2022-10-13T10:24:54;17.60;1.00
16249;DHT22;8232;51.678;6.610;2022-10-13T10:27:28;18.60;1.00
16249;DHT22;8232;51.678;6.610;2022-10-13T10:30:03;19.00;1.00
16249;DHT22;8232;51.678;6.610;2022-10-13T10:32:37;19.20;1.00
16249;DHT22;8232;51.678;6.610;2022-10-13T10:35:12;18.50;1.00
16249;DHT22;8232;51.678;6.610;2022-10-13T10:37:52;18.20;1.00
16249;DHT22;8232;51.678;6.610;2022-10-13T10:40:31;17.50;1.00
16249;DHT22;8232;51.678;6.610;2022-10-13T10:43:25;17.70;1.00
16249;DHT22;8232;51.678;6.610;2022-10-13T10:45:58;18.20;1.00
16249;DHT22;8232;51.678;6.610;2022-10-13T10:48:29;18.10;1.00
16249;DHT22;8232;51.678;6.610;2022-10-13T10:50:57;17.70;1.00
16249;DHT22;8232;51.678;6.610;2022-10-13T10:53:32;17.30;1.00
16249;DHT22;8232;51.678;6.610;2022-10-13T10:56:06;17.20;1.00
16249;DHT22;8232;51.678;6.610;2022-10-13T10:58:42;16.70;1.00
16249;DHT22;8232;51.678;6.610;2022-10-13T11:01:22;16.40;1.00
16249;DHT22;8232;51.678;6.610;2022-10-13T11:03:56;16.40;1.00
16249;DHT22;8232;51.678;6.610;2022-10-13T11:06:32;16.20;1.00
16249;DHT22;8232;51.678;6.610;2022-10-13T11:09:01;16.10;1.00
16249;DHT22;8232;51.678;6.610;2022-10-13T11:11:36;16.20;1.00
16249;DHT22;8232;51.678;6.610;2022-10-13T11:14:28;16.10;1.00
16249;DHT22;8232;51.678;6.610;2022-10-13T11:17:14;16.20;1.00
16249;DHT22;8232;51.678;6.610;2022-10-13T11:19:42;16.20;1.00
16249;DHT22;8232;51.678;6.610;2022-10-13T11:22:13;16.20;1.00
16249;DHT22;8232;51.678;6.610;2022-10-13T11:25:01;16.10;1.00
16249;DHT22;8232;51.678;6.610;2022-10-13T11:27:40;16.00;1.00
16249;DHT22;8232;51.678;6.610;2022-10-13T11:30:45;16.00;1.00
16249;DHT22;8232;51.678;6.610;2022-10-13T11:33:52;16.10;1.00
16249;DHT22;8232;51.678;6.610;2022-10-13T11:36:38;16.10;1.00
16249;DHT22;8232;51.678;6.610;2022-10-13T11:39:42;16.10;1.00
16249;DHT22;8232;51.678;6.610;2022-10-13T11:42:34;16.10;1.00
16249;DHT22;8232;51.678;6.610;2022-10-13T11:45:12;16.00;1.00
16249;DHT22;8232;51.678;6.610;2022-10-13T11:48:03;15.90;1.00
16249;DHT22;8232;51.678;6.610;2022-10-13T11:50:40;15.90;1.00
16249;DHT22;8232;51.678;6.610;2022-10-13T11:53:20;15.90;1.00
16249;DHT22;8232;51.678;6.610;2022-10-13T11:55:50;15.80;1.00
16249;DHT22;8232;51.678;6.610;2022-10-13T11:58:20;15.70;1.00
16249;DHT22;8232;51.678;6.610;2022-10-13T12:00:55;15.80;99.90
16249;DHT22;8232;51.678;6.610;2022-10-13T12:03:25;15.60;1.00
16249;DHT22;8232;51.678;6.610;2022-10-13T12:05:55;15.40;1.00
16249;DHT22;8232;51.678;6.610;2022-10-13T12:08:23;15.30;1.00
16249;DHT22;8232;51.678;6.610;2022-10-13T12:10:53;15.10;1.00
16249;DHT22;8232;51.678;6.610;2022-10-13T12:13:26;15.00;1.00
16249;DHT22;8232;51.678;6.610;2022-10-13T12:15:58;15.00;1.00
16249;DHT22;8232;51.678;6.610;2022-10-13T12:18:28;15.00;1.00
16249;DHT22;8232;51.678;6.610;2022-10-13T12:20:59;15.00;1.00
16249;DHT22;8232;51.678;6.610;2022-10-13T12:23:29;15.00;1.00
16249;DHT22;8232;51.678;6.610;2022-10-13T12:25:57;14.90;1.00
16249;DHT22;8232;51.678;6.610;2022-10-13T12:28:28;15.10;1.00
16249;DHT22;8232;51.678;6.610;2022-10-13T12:30:56;15.20;1.00
16249;DHT22;8232;51.678;6.610;2022-10-13T12:33:28;15.20;1.00
16249;DHT22;8232;51.678;6.610;2022-10-13T12:36:10;15.40;1.00
16249;DHT22;8232;51.678;6.610;2022-10-13T12:38:38;15.40;1.00
16249;DHT22;8232;51.678;6.610;2022-10-13T12:41:08;15.40;1.00
16249;DHT22;8232;51.678;6.610;2022-10-13T12:43:37;15.60;1.00
16249;DHT22;8232;51.678;6.610;2022-10-13T12:46:04;15.40;1.00
16249;DHT22;8232;51.678;6.610;2022-10-13T12:48:35;15.30;1.00
16249;DHT22;8232;51.678;6.610;2022-10-13T12:53:51;15.10;1.00
16249;DHT22;8232;51.678;6.610;2022-10-13T12:56:25;15.10;1.00
16249;DHT22;8232;51.678;6.610;2022-10-13T12:58:55;15.00;1.00
16249;DHT22;8232;51.678;6.610;2022-10-13T13:01:28;14.90;1.00
16249;DHT22;8232;51.678;6.610;2022-10-13T13:03:58;14.90;1.00
16249;DHT22;8232;51.678;6.610;2022-10-13T13:06:33;14.80;1.00
16249;DHT22;8232;51.678;6.610;2022-10-13T13:09:20;14.80;1.00
16249;DHT22;8232;51.678;6.610;2022-10-13T13:11:47;14.80;1.00
16249;DHT22;8232;51.678;6.610;2022-10-13T13:14:23;14.70;1.00
16249;DHT22;8232;51.678;6.610;2022-10-13T13:17:06;14.70;1.00
16249;DHT22;8232;51.678;6.610;2022-10-13T13:19:34;14.70;1.00
16249;DHT22;8232;51.678;6.610;2022-10-13T13:22:02;14.70;1.00
16249;DHT22;8232;51.678;6.610;2022-10-13T13:24:29;14.70;1.00
16249;DHT22;8232;51.678;6.610;2022-10-13T13:26:56;14.70;1.00
16249;DHT22;8232;51.678;6.610;2022-10-13T13:29:25;14.70;1.00
16249;DHT22;8232;51.678;6.610;2022-10-13T13:31:51;14.60;1.00
16249;DHT22;8232;51.678;6.610;2022-10-13T13:34:18;14.60;1.00
16249;DHT22;8232;51.678;6.610;2022-10-13T13:36:47;14.60;1.00
16249;DHT22;8232;51.678;6.610;2022-10-13T13:39:15;14.60;1.00
16249;DHT22;8232;51.678;6.610;2022-10-13T13:41:43;14.60;1.00
16249;DHT22;8232;51.678;6.610;2022-10-13T13:44:10;14.60;1.00
16249;DHT22;8232;51.678;6.610;2022-10-13T13:46:38;14.60;1.00
16249;DHT22;8232;51.678;6.610;2022-10-13T13:49:07;14.50;1.00
16249;DHT22;8232;51.678;6.610;2022-10-13T13:51:34;14.30;99.90
16249;DHT22;8232;51.678;6.610;2022-10-13T13:54:01;14.30;99.90
16249;DHT22;8232;51.678;6.610;2022-10-13T13:56:28;14.30;1.00
16249;DHT22;8232;51.678;6.610;2022-10-13T13:58:54;14.30;1.00
16249;DHT22;8232;51.678;6.610;2022-10-13T14:01:21;14.20;1.00
16249;DHT22;8232;51.678;6.610;2022-10-13T14:03:50;14.20;1.00
16249;DHT22;8232;51.678;6.610;2022-10-13T14:06:18;14.10;1.00
16249;DHT22;8232;51.678;6.610;2022-10-13T14:08:45;14.10;1.00
16249;DHT22;8232;51.678;6.610;2022-10-13T14:11:12;14.00;1.00
16249;DHT22;8232;51.678;6.610;2022-10-13T14:13:39;14.00;1.00
16249;DHT22;8232;51.678;6.610;2022-10-13T14:16:07;13.90;99.90
16249;DHT22;8232;51.678;6.610;2022-10-13T14:18:37;13.90;99.90
16249;DHT22;8232;51.678;6.610;2022-10-13T14:21:06;13.90;99.90
16249;DHT22;8232;51.678;6.610;2022-10-13T14:23:34;13.90;27.90
16249;DHT22;8232;51.678;6.610;2022-10-13T14:26:04;13.90;73.80
16249;DHT22;8232;51.678;6.610;2022-10-13T14:28:32;13.80;27.70
16249;DHT22;8232;51.678;6.610;2022-10-13T14:30:59;13.80;30.10
16249;DHT22;8232;51.678;6.610;2022-10-13T14:33:25;13.80;25.10
16249;DHT22;8232;51.678;6.610;2022-10-13T14:35:58;13.80;37.60
16249;DHT22;8232;51.678;6.610;2022-10-13T14:38:26;13.70;43.90
16249;DHT22;8232;51.678;6.610;2022-10-13T14:40:57;13.70;35.20
16249;DHT22;8232;51.678;6.610;2022-10-13T14:43:25;13.80;53.60
16249;DHT22;8232;51.678;6.610;2022-10-13T14:45:52;13.70;40.60
16249;DHT22;8232;51.678;6.610;2022-10-13T14:48:19;13.60;77.70
16249;DHT22;8232;51.678;6.610;2022-10-13T14:50:45;13.60;94.50
16249;DHT22;8232;51.678;6.610;2022-10-13T14:53:12;13.60;99.90
16249;DHT22;8232;51.678;6.610;2022-10-13T14:55:41;13.50;99.90
16249;DHT22;8232;51.678;6.610;2022-10-13T14:58:08;13.60;99.90
16249;DHT22;8232;51.678;6.610;2022-10-13T15:00:35;13.60;99.90
16249;DHT22;8232;51.678;6.610;2022-10-13T15:03:03;13.60;99.90
16249;DHT22;8232;51.678;6.610;2022-10-13T15:05:30;13.60;99.90
16249;DHT22;8232;51.678;6.610;2022-10-13T15:07:57;13.70;99.90
16249;DHT22;8232;51.678;6.610;2022-10-13T15:10:23;13.70;99.90
16249;DHT22;8232;51.678;6.610;2022-10-13T15:12:52;13.60;99.90
16249;DHT22;8232;51.678;6.610;2022-10-13T15:15:19;13.70;99.90
16249;DHT22;8232;51.678;6.610;2022-10-13T15:17:46;13.60;99.90
16249;DHT22;8232;51.678;6.610;2022-10-13T15:20:12;13.60;52.80
16249;DHT22;8232;51.678;6.610;2022-10-13T15:22:39;13.70;1.00
16249;DHT22;8232;51.678;6.610;2022-10-13T15:25:07;13.60;99.90
16249;DHT22;8232;51.678;6.610;2022-10-13T15:27:35;13.70;99.90
16249;DHT22;8232;51.678;6.610;2022-10-13T15:30:06;13.80;99.90
16249;DHT22;8232;51.678;6.610;2022-10-13T15:32:33;13.70;99.90
16249;DHT22;8232;51.678;6.610;2022-10-13T15:35:00;13.70;99.90
16249;DHT22;8232;51.678;6.610;2022-10-13T15:37:26;13.80;99.90
16249;DHT22;8232;51.678;6.610;2022-10-13T15:39:53;13.70;99.90
16249;DHT22;8232;51.678;6.610;2022-10-13T15:42:20;13.70;99.90
16249;DHT22;8232;51.678;6.610;2022-10-13T15:44:47;13.80;99.90
16249;DHT22;8232;51.678;6.610;2022-10-13T15:47:15;13.70;99.90
16249;DHT22;8232;51.678;6.610;2022-10-13T15:49:42;13.60;99.90
16249;DHT22;8232;51.678;6.610;2022-10-13T15:52:08;13.60;82.90
16249;DHT22;8232;51.678;6.610;2022-10-13T15:54:35;13.60;1.00
16249;DHT22;8232;51.678;6.610;2022-10-13T15:57:02;13.70;1.00
16249;DHT22;8232;51.678;6.610;2022-10-13T15:59:29;13.60;1.00
16249;DHT22;8232;51.678;6.610;2022-10-13T16:01:55;13.60;99.90
16249;DHT22;8232;51.678;6.610;2022-10-13T16:04:24;13.60;99.90
16249;DHT22;8232;51.678;6.610;2022-10-13T16:06:50;13.60;99.90
16249;DHT22;8232;51.678;6.610;2022-10-13T16:09:17;13.70;99.90
16249;DHT22;8232;51.678;6.610;2022-10-13T16:11:44;13.70;99.90
16249;DHT22;8232;51.678;6.610;2022-10-13T16:14:11;13.70;99.90
16249;DHT22;8232;51.678;6.610;2022-10-13T16:16:37;13.70;99.90
16249;DHT22;8232;51.678;6.610;2022-10-13T16:19:04;13.80;99.90
16249;DHT22;8232;51.678;6.610;2022-10-13T16:21:32;13.80;99.90
16249;DHT22;8232;51.678;6.610;2022-10-13T16:23:59;13.90;99.90